sensor_id;sensor_type;location;lat;lon;timestamp;P1;durP1;ratioP1;P2;durP2;ratioP2
70165;SDS011;57541;47.408;18.822;2022-11-15T00:00:13;69.22;;;27.55;;
70165;SDS011;57541;47.408;18.822;2022-11-15T00:00:45;59.35;;;26.50;;
70165;SDS011;57541;47.408;18.822;2022-11-15T00:01:17;62.28;;;26.13;;
70165;SDS011;57541;47.408;18.822;2022-11-15T00:01:49;65.18;;;26.80;;
70165;SDS011;57541;47.408;18.822;2022-11-15T00:02:21;71.38;;;27.17;;
70165;SDS011;57541;47.408;18.822;2022-11-15T00:02:52;72.13;;;25.70;;
70165;SDS011;57541;47.408;18.822;2022-11-15T00:03:25;67.68;;;26.98;;
70165;SDS011;57541;47.408;18.822;2022-11-15T00:03:58;72.30;;;26.98;;
70165;SDS011;57541;47.408;18.822;2022-11-15T00:04:30;70.75;;;26.52;;
70165;SDS011;57541;47.408;18.822;2022-11-15T00:05:01;64.75;;;26.55;;
70165;SDS011;57541;47.408;18.822;2022-11-15T00:05:36;67.15;;;27.35;;
70165;SDS011;57541;47.408;18.822;2022-11-15T00:06:08;71.18;;;28.20;;
70165;SDS011;57541;47.408;18.822;2022-11-15T00:06:40;72.05;;;26.85;;
70165;SDS011;57541;47.408;18.822;2022-11-15T00:07:11;78.28;;;26.63;;
70165;SDS011;57541;47.408;18.822;2022-11-15T00:08:03;71.38;;;26.48;;
70165;SDS011;57541;47.408;18.822;2022-11-15T00:08:35;60.75;;;25.27;;
70165;SDS011;57541;47.408;18.822;2022-11-15T00:09:06;58.65;;;25.98;;
70165;SDS011;57541;47.408;18.822;2022-11-15T00:09:38;57.20;;;26.02;;
70165;SDS011;57541;47.408;18.822;2022-11-15T00:10:16;69.18;;;26.15;;
70165;SDS011;57541;47.408;18.822;2022-11-15T00:10:56;72.63;;;26.38;;
70165;SDS011;57541;47.408;18.822;2022-11-15T00:11:29;56.90;;;25.30;;
70165;SDS011;57541;47.408;18.822;2022-11-15T00:12:01;60.42;;;25.35;;
70165;SDS011;57541;47.408;18.822;2022-11-15T00:12:32;70.97;;;28.42;;
70165;SDS011;57541;47.408;18.822;2022-11-15T00:13:11;62.60;;;27.77;;
70165;SDS011;57541;47.408;18.822;2022-11-15T00:13:44;68.95;;;27.90;;
70165;SDS011;57541;47.408;18.822;2022-11-15T00:14:15;75.68;;;28.83;;
70165;SDS011;57541;47.408;18.822;2022-11-15T00:14:47;70.60;;;29.20;;
70165;SDS011;57541;47.408;18.822;2022-11-15T00:15:18;71.88;;;29.33;;
70165;SDS011;57541;47.408;18.822;2022-11-15T00:15:50;70.80;;;28.25;;
70165;SDS011;57541;47.408;18.822;2022-11-15T00:16:22;59.10;;;28.65;;
70165;SDS011;57541;47.408;18.822;2022-11-15T00:16:53;73.05;;;29.65;;
70165;SDS011;57541;47.408;18.822;2022-11-15T00:17:25;67.22;;;28.60;;
70165;SDS011;57541;47.408;18.822;2022-11-15T00:17:57;65.65;;;27.17;;
70165;SDS011;57541;47.408;18.822;2022-11-15T00:18:29;58.33;;;27.13;;
70165;SDS011;57541;47.408;18.822;2022-11-15T00:19:01;58.08;;;27.27;;
70165;SDS011;57541;47.408;18.822;2022-11-15T00:19:33;55.47;;;27.42;;
70165;SDS011;57541;47.408;18.822;2022-11-15T00:20:06;53.13;;;25.70;;
70165;SDS011;57541;47.408;18.822;2022-11-15T00:20:38;59.03;;;25.85;;
70165;SDS011;57541;47.408;18.822;2022-11-15T00:21:10;59.03;;;26.58;;
70165;SDS011;57541;47.408;18.822;2022-11-15T00:21:43;54.65;;;26.67;;
70165;SDS011;57541;47.408;18.822;2022-11-15T00:22:14;49.25;;;25.92;;
70165;SDS011;57541;47.408;18.822;2022-11-15T00:22:46;53.33;;;25.38;;
70165;SDS011;57541;47.408;18.822;2022-11-15T00:23:17;51.83;;;25.75;;
70165;SDS011;57541;47.408;18.822;2022-11-15T00:23:49;46.92;;;24.52;;
70165;SDS011;57541;47.408;18.822;2022-11-15T00:24:20;57.42;;;26.00;;
70165;SDS011;57541;47.408;18.822;2022-11-15T00:24:52;55.60;;;25.50;;
70165;SDS011;57541;47.408;18.822;2022-11-15T00:25:24;57.53;;;26.55;;
70165;SDS011;57541;47.408;18.822;2022-11-15T00:25:58;62.28;;;26.13;;
70165;SDS011;57541;47.408;18.822;2022-11-15T00:26:30;60.78;;;25.85;;
70165;SDS011;57541;47.408;18.822;2022-11-15T00:27:02;56.88;;;26.23;;
70165;SDS011;57541;47.408;18.822;2022-11-15T00:27:38;59.97;;;25.38;;
70165;SDS011;57541;47.408;18.822;2022-11-15T00:28:09;49.88;;;25.95;;
70165;SDS011;57541;47.408;18.822;2022-11-15T00:28:41;47.90;;;25.13;;
70165;SDS011;57541;47.408;18.822;2022-11-15T00:29:13;60.78;;;27.52;;
70165;SDS011;57541;47.408;18.822;2022-11-15T00:29:44;54.03;;;26.42;;
70165;SDS011;57541;47.408;18.822;2022-11-15T00:30:16;63.38;;;26.58;;
70165;SDS011;57541;47.408;18.822;2022-11-15T00:30:48;58.72;;;26.33;;
70165;SDS011;57541;47.408;18.822;2022-11-15T00:31:19;59.47;;;26.23;;
70165;SDS011;57541;47.408;18.822;2022-11-15T00:31:52;58.00;;;26.33;;
70165;SDS011;57541;47.408;18.822;2022-11-15T00:32:23;56.30;;;25.83;;
70165;SDS011;57541;47.408;18.822;2022-11-15T00:32:55;51.55;;;25.00;;
70165;SDS011;57541;47.408;18.822;2022-11-15T00:33:26;54.63;;;26.27;;
70165;SDS011;57541;47.408;18.822;2022-11-15T00:33:58;59.90;;;26.35;;
70165;SDS011;57541;47.408;18.822;2022-11-15T00:34:30;50.10;;;25.50;;
70165;SDS011;57541;47.408;18.822;2022-11-15T00:35:02;57.63;;;26.23;;
70165;SDS011;57541;47.408;18.822;2022-11-15T00:35:34;54.95;;;27.38;;
70165;SDS011;57541;47.408;18.822;2022-11-15T00:36:06;50.05;;;25.23;;
70165;SDS011;57541;47.408;18.822;2022-11-15T00:36:40;54.80;;;25.85;;
70165;SDS011;57541;47.408;18.822;2022-11-15T00:37:11;48.97;;;24.90;;
70165;SDS011;57541;47.408;18.822;2022-11-15T00:37:43;52.85;;;25.92;;
70165;SDS011;57541;47.408;18.822;2022-11-15T00:38:15;59.42;;;25.45;;
70165;SDS011;57541;47.408;18.822;2022-11-15T00:38:46;55.05;;;26.08;;
70165;SDS011;57541;47.408;18.822;2022-11-15T00:39:18;53.63;;;25.27;;
70165;SDS011;57541;47.408;18.822;2022-11-15T00:39:49;49.70;;;24.95;;
70165;SDS011;57541;47.408;18.822;2022-11-15T00:40:21;53.05;;;26.55;;
70165;SDS011;57541;47.408;18.822;2022-11-15T00:40:53;52.35;;;26.38;;
70165;SDS011;57541;47.408;18.822;2022-11-15T00:41:24;50.40;;;25.17;;
70165;SDS011;57541;47.408;18.822;2022-11-15T00:41:56;62.08;;;25.50;;
70165;SDS011;57541;47.408;18.822;2022-11-15T00:42:27;53.67;;;25.33;;
70165;SDS011;57541;47.408;18.822;2022-11-15T00:42:59;48.78;;;24.75;;
70165;SDS011;57541;47.408;18.822;2022-11-15T00:43:31;53.70;;;25.52;;
70165;SDS011;57541;47.408;18.822;2022-11-15T00:44:03;56.72;;;26.23;;
70165;SDS011;57541;47.408;18.822;2022-11-15T00:44:35;49.65;;;24.92;;
70165;SDS011;57541;47.408;18.822;2022-11-15T00:45:07;52.30;;;24.90;;
70165;SDS011;57541;47.408;18.822;2022-11-15T00:45:39;49.20;;;24.55;;
70165;SDS011;57541;47.408;18.822;2022-11-15T00:46:10;59.30;;;26.30;;
70165;SDS011;57541;47.408;18.822;2022-11-15T00:46:42;60.25;;;25.77;;
70165;SDS011;57541;47.408;18.822;2022-11-15T00:47:13;55.50;;;25.38;;
70165;SDS011;57541;47.408;18.822;2022-11-15T00:47:45;45.38;;;24.55;;
70165;SDS011;57541;47.408;18.822;2022-11-15T00:48:17;44.97;;;25.67;;
70165;SDS011;57541;47.408;18.822;2022-11-15T00:48:49;52.80;;;25.23;;
70165;SDS011;57541;47.408;18.822;2022-11-15T00:49:20;54.95;;;25.90;;
70165;SDS011;57541;47.408;18.822;2022-11-15T00:49:52;48.75;;;25.92;;
70165;SDS011;57541;47.408;18.822;2022-11-15T00:50:23;53.58;;;26.30;;
70165;SDS011;57541;47.408;18.822;2022-11-15T00:50:55;56.08;;;25.75;;
70165;SDS011;57541;47.408;18.822;2022-11-15T00:51:26;48.10;;;24.27;;
70165;SDS011;57541;47.408;18.822;2022-11-15T00:51:58;56.53;;;25.25;;
70165;SDS011;57541;47.408;18.822;2022-11-15T00:52:30;51.78;;;26.13;;
70165;SDS011;57541;47.408;18.822;2022-11-15T00:53:01;63.65;;;26.02;;
70165;SDS011;57541;47.408;18.822;2022-11-15T00:53:33;53.88;;;25.65;;
70165;SDS011;57541;47.408;18.822;2022-11-15T00:54:05;56.88;;;26.17;;
70165;SDS011;57541;47.408;18.822;2022-11-15T00:54:36;48.80;;;25.42;;
70165;SDS011;57541;47.408;18.822;2022-11-15T00:55:09;57.15;;;26.15;;
70165;SDS011;57541;47.408;18.822;2022-11-15T00:55:46;52.58;;;24.80;;
70165;SDS011;57541;47.408;18.822;2022-11-15T00:56:17;45.00;;;24.05;;
70165;SDS011;57541;47.408;18.822;2022-11-15T00:56:49;45.22;;;24.92;;
70165;SDS011;57541;47.408;18.822;2022-11-15T00:57:21;44.13;;;24.63;;
70165;SDS011;57541;47.408;18.822;2022-11-15T00:57:52;51.47;;;25.77;;
70165;SDS011;57541;47.408;18.822;2022-11-15T00:58:24;44.45;;;24.90;;
70165;SDS011;57541;47.408;18.822;2022-11-15T00:58:55;47.13;;;24.35;;
70165;SDS011;57541;47.408;18.822;2022-11-15T00:59:27;51.95;;;23.95;;
70165;SDS011;57541;47.408;18.822;2022-11-15T00:59:58;47.00;;;24.48;;
70165;SDS011;57541;47.408;18.822;2022-11-15T01:00:30;48.53;;;23.52;;
70165;SDS011;57541;47.408;18.822;2022-11-15T01:01:05;46.85;;;23.83;;
70165;SDS011;57541;47.408;18.822;2022-11-15T01:01:38;49.72;;;23.90;;
70165;SDS011;57541;47.408;18.822;2022-11-15T01:02:10;52.53;;;23.67;;
70165;SDS011;57541;47.408;18.822;2022-11-15T01:02:41;50.88;;;23.35;;
70165;SDS011;57541;47.408;18.822;2022-11-15T01:03:13;40.70;;;22.95;;
70165;SDS011;57541;47.408;18.822;2022-11-15T01:03:44;43.63;;;23.83;;
70165;SDS011;57541;47.408;18.822;2022-11-15T01:04:16;45.75;;;23.23;;
70165;SDS011;57541;47.408;18.822;2022-11-15T01:04:47;43.80;;;22.88;;
70165;SDS011;57541;47.408;18.822;2022-11-15T01:05:19;45.90;;;23.63;;
70165;SDS011;57541;47.408;18.822;2022-11-15T01:05:51;47.22;;;24.15;;
70165;SDS011;57541;47.408;18.822;2022-11-15T01:06:23;54.17;;;24.02;;
70165;SDS011;57541;47.408;18.822;2022-11-15T01:06:54;47.15;;;23.60;;
70165;SDS011;57541;47.408;18.822;2022-11-15T01:07:26;44.90;;;24.38;;
70165;SDS011;57541;47.408;18.822;2022-11-15T01:07:58;46.08;;;23.95;;
70165;SDS011;57541;47.408;18.822;2022-11-15T01:08:29;49.63;;;23.25;;
70165;SDS011;57541;47.408;18.822;2022-11-15T01:09:01;58.42;;;23.23;;
70165;SDS011;57541;47.408;18.822;2022-11-15T01:09:32;45.55;;;23.10;;
70165;SDS011;57541;47.408;18.822;2022-11-15T01:10:04;45.08;;;23.95;;
70165;SDS011;57541;47.408;18.822;2022-11-15T01:10:36;52.50;;;23.60;;
70165;SDS011;57541;47.408;18.822;2022-11-15T01:11:09;49.53;;;24.63;;
70165;SDS011;57541;47.408;18.822;2022-11-15T01:11:42;51.88;;;22.77;;
70165;SDS011;57541;47.408;18.822;2022-11-15T01:12:13;45.95;;;23.13;;
70165;SDS011;57541;47.408;18.822;2022-11-15T01:12:45;52.22;;;23.27;;
70165;SDS011;57541;47.408;18.822;2022-11-15T01:13:17;45.03;;;23.70;;
70165;SDS011;57541;47.408;18.822;2022-11-15T01:13:48;46.45;;;23.83;;
70165;SDS011;57541;47.408;18.822;2022-11-15T01:14:20;45.63;;;24.23;;
70165;SDS011;57541;47.408;18.822;2022-11-15T01:14:55;53.88;;;23.75;;
70165;SDS011;57541;47.408;18.822;2022-11-15T01:15:27;46.15;;;22.88;;
70165;SDS011;57541;47.408;18.822;2022-11-15T01:15:59;45.55;;;23.05;;
70165;SDS011;57541;47.408;18.822;2022-11-15T01:16:36;44.30;;;23.40;;
70165;SDS011;57541;47.408;18.822;2022-11-15T01:17:08;55.10;;;24.58;;
70165;SDS011;57541;47.408;18.822;2022-11-15T01:17:39;55.42;;;24.23;;
70165;SDS011;57541;47.408;18.822;2022-11-15T01:18:11;46.53;;;23.95;;
70165;SDS011;57541;47.408;18.822;2022-11-15T01:18:44;43.95;;;23.08;;
70165;SDS011;57541;47.408;18.822;2022-11-15T01:19:16;47.78;;;24.13;;
70165;SDS011;57541;47.408;18.822;2022-11-15T01:19:48;45.75;;;23.23;;
70165;SDS011;57541;47.408;18.822;2022-11-15T01:20:19;43.63;;;22.98;;
70165;SDS011;57541;47.408;18.822;2022-11-15T01:20:51;44.35;;;23.13;;
70165;SDS011;57541;47.408;18.822;2022-11-15T01:21:23;44.58;;;22.80;;
70165;SDS011;57541;47.408;18.822;2022-11-15T01:21:54;44.88;;;23.60;;
70165;SDS011;57541;47.408;18.822;2022-11-15T01:22:26;43.05;;;23.30;;
70165;SDS011;57541;47.408;18.822;2022-11-15T01:22:57;41.97;;;22.70;;
70165;SDS011;57541;47.408;18.822;2022-11-15T01:23:29;42.63;;;22.88;;
70165;SDS011;57541;47.408;18.822;2022-11-15T01:24:01;46.30;;;23.00;;
70165;SDS011;57541;47.408;18.822;2022-11-15T01:24:33;44.72;;;23.75;;
70165;SDS011;57541;47.408;18.822;2022-11-15T01:25:04;52.22;;;24.48;;
70165;SDS011;57541;47.408;18.822;2022-11-15T01:25:37;48.13;;;25.13;;
70165;SDS011;57541;47.408;18.822;2022-11-15T01:26:10;41.78;;;23.05;;
70165;SDS011;57541;47.408;18.822;2022-11-15T01:26:42;42.63;;;21.80;;
70165;SDS011;57541;47.408;18.822;2022-11-15T01:27:14;45.28;;;23.25;;
70165;SDS011;57541;47.408;18.822;2022-11-15T01:27:45;48.75;;;23.30;;
70165;SDS011;57541;47.408;18.822;2022-11-15T01:28:17;45.60;;;22.08;;
70165;SDS011;57541;47.408;18.822;2022-11-15T01:28:49;45.42;;;23.17;;
70165;SDS011;57541;47.408;18.822;2022-11-15T01:29:21;42.10;;;22.63;;
70165;SDS011;57541;47.408;18.822;2022-11-15T01:29:52;45.03;;;23.48;;
70165;SDS011;57541;47.408;18.822;2022-11-15T01:30:24;43.50;;;23.00;;
70165;SDS011;57541;47.408;18.822;2022-11-15T01:30:57;46.55;;;23.58;;
70165;SDS011;57541;47.408;18.822;2022-11-15T01:31:30;40.25;;;22.08;;
70165;SDS011;57541;47.408;18.822;2022-11-15T01:32:01;41.47;;;22.30;;
70165;SDS011;57541;47.408;18.822;2022-11-15T01:32:33;45.38;;;23.17;;
70165;SDS011;57541;47.408;18.822;2022-11-15T01:33:04;38.00;;;21.60;;
70165;SDS011;57541;47.408;18.822;2022-11-15T01:33:36;41.88;;;22.63;;
70165;SDS011;57541;47.408;18.822;2022-11-15T01:34:08;40.90;;;21.63;;
70165;SDS011;57541;47.408;18.822;2022-11-15T01:34:39;38.83;;;22.05;;
70165;SDS011;57541;47.408;18.822;2022-11-15T01:35:11;45.75;;;23.60;;
70165;SDS011;57541;47.408;18.822;2022-11-15T01:35:42;40.30;;;22.58;;
70165;SDS011;57541;47.408;18.822;2022-11-15T01:36:15;41.95;;;22.48;;
70165;SDS011;57541;47.408;18.822;2022-11-15T01:36:52;38.08;;;22.05;;
70165;SDS011;57541;47.408;18.822;2022-11-15T01:37:24;40.63;;;21.67;;
70165;SDS011;57541;47.408;18.822;2022-11-15T01:37:55;43.17;;;21.63;;
70165;SDS011;57541;47.408;18.822;2022-11-15T01:38:27;44.88;;;21.02;;
70165;SDS011;57541;47.408;18.822;2022-11-15T01:38:59;37.30;;;21.38;;
70165;SDS011;57541;47.408;18.822;2022-11-15T01:39:30;41.38;;;20.75;;
70165;SDS011;57541;47.408;18.822;2022-11-15T01:40:02;38.92;;;22.20;;
70165;SDS011;57541;47.408;18.822;2022-11-15T01:40:34;41.35;;;21.63;;
70165;SDS011;57541;47.408;18.822;2022-11-15T01:41:06;38.22;;;21.40;;
70165;SDS011;57541;47.408;18.822;2022-11-15T01:41:43;40.22;;;21.92;;
70165;SDS011;57541;47.408;18.822;2022-11-15T01:42:15;39.60;;;21.25;;
70165;SDS011;57541;47.408;18.822;2022-11-15T01:42:47;43.03;;;21.13;;
70165;SDS011;57541;47.408;18.822;2022-11-15T01:43:29;41.35;;;22.48;;
70165;SDS011;57541;47.408;18.822;2022-11-15T01:45:04;42.03;;;21.23;;
70165;SDS011;57541;47.408;18.822;2022-11-15T01:45:36;42.13;;;21.33;;
70165;SDS011;57541;47.408;18.822;2022-11-15T01:46:40;37.42;;;20.00;;
70165;SDS011;57541;47.408;18.822;2022-11-15T01:47:17;34.78;;;21.25;;
70165;SDS011;57541;47.408;18.822;2022-11-15T01:47:56;37.35;;;20.52;;
70165;SDS011;57541;47.408;18.822;2022-11-15T01:48:30;36.72;;;20.65;;
70165;SDS011;57541;47.408;18.822;2022-11-15T01:49:05;35.35;;;20.05;;
70165;SDS011;57541;47.408;18.822;2022-11-15T01:49:49;41.88;;;21.25;;
70165;SDS011;57541;47.408;18.822;2022-11-15T01:50:39;36.25;;;19.55;;
70165;SDS011;57541;47.408;18.822;2022-11-15T01:51:11;36.28;;;19.80;;
70165;SDS011;57541;47.408;18.822;2022-11-15T01:51:47;35.13;;;19.92;;
70165;SDS011;57541;47.408;18.822;2022-11-15T01:52:19;38.63;;;21.65;;
70165;SDS011;57541;47.408;18.822;2022-11-15T01:52:53;34.97;;;20.63;;
70165;SDS011;57541;47.408;18.822;2022-11-15T01:53:24;37.75;;;21.63;;
70165;SDS011;57541;47.408;18.822;2022-11-15T01:53:58;34.20;;;21.05;;
70165;SDS011;57541;47.408;18.822;2022-11-15T01:54:33;37.25;;;20.83;;
70165;SDS011;57541;47.408;18.822;2022-11-15T01:55:09;36.53;;;21.13;;
70165;SDS011;57541;47.408;18.822;2022-11-15T01:55:45;36.80;;;20.90;;
70165;SDS011;57541;47.408;18.822;2022-11-15T01:56:17;35.17;;;20.88;;
70165;SDS011;57541;47.408;18.822;2022-11-15T01:56:53;37.25;;;22.52;;
70165;SDS011;57541;47.408;18.822;2022-11-15T01:57:30;35.83;;;20.52;;
70165;SDS011;57541;47.408;18.822;2022-11-15T01:58:03;34.75;;;20.58;;
70165;SDS011;57541;47.408;18.822;2022-11-15T01:58:36;35.33;;;20.23;;
70165;SDS011;57541;47.408;18.822;2022-11-15T01:59:10;37.40;;;20.80;;
70165;SDS011;57541;47.408;18.822;2022-11-15T01:59:43;33.30;;;20.17;;
70165;SDS011;57541;47.408;18.822;2022-11-15T02:01:09;35.42;;;20.13;;
70165;SDS011;57541;47.408;18.822;2022-11-15T02:01:42;33.90;;;20.25;;
70165;SDS011;57541;47.408;18.822;2022-11-15T02:02:14;35.28;;;20.45;;
70165;SDS011;57541;47.408;18.822;2022-11-15T02:02:46;32.50;;;19.33;;
70165;SDS011;57541;47.408;18.822;2022-11-15T02:03:17;39.17;;;21.38;;
70165;SDS011;57541;47.408;18.822;2022-11-15T02:03:55;37.38;;;20.55;;
70165;SDS011;57541;47.408;18.822;2022-11-15T02:04:34;36.33;;;20.92;;
70165;SDS011;57541;47.408;18.822;2022-11-15T02:05:10;37.45;;;21.88;;
70165;SDS011;57541;47.408;18.822;2022-11-15T02:05:42;34.40;;;21.13;;
70165;SDS011;57541;47.408;18.822;2022-11-15T02:06:15;35.53;;;20.92;;
70165;SDS011;57541;47.408;18.822;2022-11-15T02:06:47;36.17;;;20.77;;
70165;SDS011;57541;47.408;18.822;2022-11-15T02:07:20;36.75;;;20.95;;
70165;SDS011;57541;47.408;18.822;2022-11-15T02:07:53;36.33;;;21.27;;
70165;SDS011;57541;47.408;18.822;2022-11-15T02:08:25;36.10;;;20.83;;
70165;SDS011;57541;47.408;18.822;2022-11-15T02:08:57;35.63;;;21.65;;
70165;SDS011;57541;47.408;18.822;2022-11-15T02:09:30;35.72;;;21.58;;
70165;SDS011;57541;47.408;18.822;2022-11-15T02:10:04;34.13;;;20.63;;
70165;SDS011;57541;47.408;18.822;2022-11-15T02:10:39;33.95;;;21.17;;
70165;SDS011;57541;47.408;18.822;2022-11-15T02:11:11;35.75;;;21.52;;
70165;SDS011;57541;47.408;18.822;2022-11-15T02:11:42;36.97;;;21.65;;
70165;SDS011;57541;47.408;18.822;2022-11-15T02:12:16;38.90;;;22.63;;
70165;SDS011;57541;47.408;18.822;2022-11-15T02:12:50;38.08;;;21.13;;
70165;SDS011;57541;47.408;18.822;2022-11-15T02:13:22;40.20;;;22.33;;
70165;SDS011;57541;47.408;18.822;2022-11-15T02:13:55;37.15;;;21.55;;
70165;SDS011;57541;47.408;18.822;2022-11-15T02:14:28;36.45;;;21.88;;
70165;SDS011;57541;47.408;18.822;2022-11-15T02:15:02;38.40;;;22.15;;
70165;SDS011;57541;47.408;18.822;2022-11-15T02:15:38;38.15;;;21.90;;
70165;SDS011;57541;47.408;18.822;2022-11-15T02:17:03;37.47;;;21.38;;
70165;SDS011;57541;47.408;18.822;2022-11-15T02:18:34;35.75;;;20.73;;
70165;SDS011;57541;47.408;18.822;2022-11-15T02:18:56;38.38;;;20.75;;
70165;SDS011;57541;47.408;18.822;2022-11-15T02:21:07;35.85;;;20.38;;
70165;SDS011;57541;47.408;18.822;2022-11-15T02:21:55;35.13;;;20.52;;
70165;SDS011;57541;47.408;18.822;2022-11-15T02:23:46;39.13;;;21.27;;
70165;SDS011;57541;47.408;18.822;2022-11-15T02:29:07;36.42;;;19.83;;
70165;SDS011;57541;47.408;18.822;2022-11-15T02:29:48;40.90;;;21.38;;
70165;SDS011;57541;47.408;18.822;2022-11-15T02:32:42;35.83;;;20.48;;
70165;SDS011;57541;47.408;18.822;2022-11-15T02:33:26;40.20;;;22.15;;
70165;SDS011;57541;47.408;18.822;2022-11-15T02:35:06;35.95;;;21.20;;
70165;SDS011;57541;47.408;18.822;2022-11-15T02:38:43;38.15;;;19.95;;
70165;SDS011;57541;47.408;18.822;2022-11-15T02:41:30;37.92;;;21.55;;
70165;SDS011;57541;47.408;18.822;2022-11-15T02:42:14;38.10;;;20.67;;
70165;SDS011;57541;47.408;18.822;2022-11-15T02:43:10;39.08;;;20.52;;
70165;SDS011;57541;47.408;18.822;2022-11-15T02:44:04;36.67;;;21.15;;
70165;SDS011;57541;47.408;18.822;2022-11-15T02:45:00;36.42;;;21.23;;
70165;SDS011;57541;47.408;18.822;2022-11-15T02:45:37;35.97;;;20.50;;
70165;SDS011;57541;47.408;18.822;2022-11-15T02:46:14;38.15;;;21.40;;
70165;SDS011;57541;47.408;18.822;2022-11-15T02:47:28;35.17;;;20.15;;
70165;SDS011;57541;47.408;18.822;2022-11-15T02:48:03;37.78;;;21.75;;
70165;SDS011;57541;47.408;18.822;2022-11-15T02:48:37;38.67;;;21.05;;
70165;SDS011;57541;47.408;18.822;2022-11-15T02:49:10;37.00;;;21.13;;
70165;SDS011;57541;47.408;18.822;2022-11-15T02:49:45;35.33;;;21.50;;
70165;SDS011;57541;47.408;18.822;2022-11-15T02:50:20;36.40;;;21.45;;
70165;SDS011;57541;47.408;18.822;2022-11-15T02:50:54;37.45;;;21.58;;
70165;SDS011;57541;47.408;18.822;2022-11-15T02:51:26;36.80;;;21.20;;
70165;SDS011;57541;47.408;18.822;2022-11-15T02:51:58;35.55;;;21.45;;
70165;SDS011;57541;47.408;18.822;2022-11-15T02:52:29;35.20;;;21.35;;
70165;SDS011;57541;47.408;18.822;2022-11-15T02:53:01;36.13;;;21.33;;
70165;SDS011;57541;47.408;18.822;2022-11-15T02:53:34;36.45;;;22.02;;
70165;SDS011;57541;47.408;18.822;2022-11-15T02:54:05;36.50;;;21.48;;
70165;SDS011;57541;47.408;18.822;2022-11-15T02:54:37;37.20;;;21.33;;
70165;SDS011;57541;47.408;18.822;2022-11-15T02:55:58;36.50;;;21.95;;
70165;SDS011;57541;47.408;18.822;2022-11-15T02:56:29;37.03;;;21.63;;
70165;SDS011;57541;47.408;18.822;2022-11-15T02:57:05;37.17;;;21.48;;
70165;SDS011;57541;47.408;18.822;2022-11-15T02:57:45;38.67;;;22.33;;
70165;SDS011;57541;47.408;18.822;2022-11-15T03:00:15;33.97;;;19.67;;
70165;SDS011;57541;47.408;18.822;2022-11-15T03:02:20;36.05;;;21.20;;
70165;SDS011;57541;47.408;18.822;2022-11-15T03:04:36;36.33;;;21.05;;
70165;SDS011;57541;47.408;18.822;2022-11-15T03:05:19;35.20;;;20.67;;
70165;SDS011;57541;47.408;18.822;2022-11-15T03:06:09;38.25;;;21.67;;
70165;SDS011;57541;47.408;18.822;2022-11-15T03:07:40;38.50;;;21.15;;
70165;SDS011;57541;47.408;18.822;2022-11-15T03:08:40;36.28;;;20.67;;
70165;SDS011;57541;47.408;18.822;2022-11-15T03:09:27;35.08;;;20.88;;
70165;SDS011;57541;47.408;18.822;2022-11-15T03:10:06;37.08;;;20.58;;
70165;SDS011;57541;47.408;18.822;2022-11-15T03:11:00;37.95;;;20.48;;
70165;SDS011;57541;47.408;18.822;2022-11-15T03:11:40;35.42;;;20.40;;
70165;SDS011;57541;47.408;18.822;2022-11-15T03:12:55;38.42;;;21.40;;
70165;SDS011;57541;47.408;18.822;2022-11-15T03:13:34;36.50;;;21.05;;
70165;SDS011;57541;47.408;18.822;2022-11-15T03:15:00;34.17;;;20.33;;
70165;SDS011;57541;47.408;18.822;2022-11-15T03:16:42;36.15;;;20.30;;
70165;SDS011;57541;47.408;18.822;2022-11-15T03:17:22;35.00;;;20.63;;
70165;SDS011;57541;47.408;18.822;2022-11-15T03:18:49;34.50;;;19.30;;
70165;SDS011;57541;47.408;18.822;2022-11-15T03:19:32;35.10;;;20.83;;
70165;SDS011;57541;47.408;18.822;2022-11-15T03:20:10;34.53;;;20.27;;
70165;SDS011;57541;47.408;18.822;2022-11-15T03:20:44;36.80;;;21.58;;
70165;SDS011;57541;47.408;18.822;2022-11-15T03:21:18;34.13;;;20.60;;
70165;SDS011;57541;47.408;18.822;2022-11-15T03:21:52;34.15;;;20.20;;
70165;SDS011;57541;47.408;18.822;2022-11-15T03:22:26;33.50;;;19.95;;
70165;SDS011;57541;47.408;18.822;2022-11-15T03:23:03;36.17;;;20.98;;
70165;SDS011;57541;47.408;18.822;2022-11-15T03:23:37;36.00;;;21.52;;
70165;SDS011;57541;47.408;18.822;2022-11-15T03:24:10;35.55;;;20.58;;
70165;SDS011;57541;47.408;18.822;2022-11-15T03:24:45;35.78;;;21.38;;
70165;SDS011;57541;47.408;18.822;2022-11-15T03:25:24;37.13;;;21.35;;
70165;SDS011;57541;47.408;18.822;2022-11-15T03:25:58;36.58;;;21.55;;
70165;SDS011;57541;47.408;18.822;2022-11-15T03:26:31;37.17;;;21.90;;
70165;SDS011;57541;47.408;18.822;2022-11-15T03:27:06;37.50;;;21.00;;
70165;SDS011;57541;47.408;18.822;2022-11-15T03:27:41;35.35;;;20.90;;
70165;SDS011;57541;47.408;18.822;2022-11-15T03:28:21;34.97;;;21.48;;
70165;SDS011;57541;47.408;18.822;2022-11-15T03:29:00;36.42;;;20.83;;
70165;SDS011;57541;47.408;18.822;2022-11-15T03:29:41;32.95;;;20.30;;
70165;SDS011;57541;47.408;18.822;2022-11-15T03:30:17;35.53;;;20.77;;
70165;SDS011;57541;47.408;18.822;2022-11-15T03:30:49;37.05;;;21.05;;
70165;SDS011;57541;47.408;18.822;2022-11-15T03:31:25;35.58;;;21.15;;
70165;SDS011;57541;47.408;18.822;2022-11-15T03:32:25;35.78;;;20.55;;
70165;SDS011;57541;47.408;18.822;2022-11-15T03:32:59;35.78;;;20.67;;
70165;SDS011;57541;47.408;18.822;2022-11-15T03:33:33;34.13;;;20.17;;
70165;SDS011;57541;47.408;18.822;2022-11-15T03:34:06;34.22;;;20.65;;
70165;SDS011;57541;47.408;18.822;2022-11-15T03:34:45;32.45;;;19.70;;
70165;SDS011;57541;47.408;18.822;2022-11-15T03:35:21;35.53;;;21.15;;
70165;SDS011;57541;47.408;18.822;2022-11-15T03:35:54;35.45;;;20.60;;
70165;SDS011;57541;47.408;18.822;2022-11-15T03:36:26;36.72;;;21.58;;
70165;SDS011;57541;47.408;18.822;2022-11-15T03:36:58;35.50;;;21.25;;
70165;SDS011;57541;47.408;18.822;2022-11-15T03:37:33;33.38;;;20.50;;
70165;SDS011;57541;47.408;18.822;2022-11-15T03:38:25;34.20;;;20.40;;
70165;SDS011;57541;47.408;18.822;2022-11-15T03:39:02;33.85;;;20.27;;
70165;SDS011;57541;47.408;18.822;2022-11-15T03:39:37;35.50;;;20.40;;
70165;SDS011;57541;47.408;18.822;2022-11-15T03:40:09;33.85;;;20.58;;
70165;SDS011;57541;47.408;18.822;2022-11-15T03:41:04;39.40;;;22.55;;
70165;SDS011;57541;47.408;18.822;2022-11-15T03:41:39;37.00;;;23.23;;
70165;SDS011;57541;47.408;18.822;2022-11-15T03:42:22;41.80;;;25.92;;
70165;SDS011;57541;47.408;18.822;2022-11-15T03:43:04;38.75;;;24.88;;
70165;SDS011;57541;47.408;18.822;2022-11-15T03:43:51;40.50;;;25.25;;
70165;SDS011;57541;47.408;18.822;2022-11-15T03:44:39;35.33;;;22.70;;
70165;SDS011;57541;47.408;18.822;2022-11-15T03:45:39;34.58;;;20.67;;
70165;SDS011;57541;47.408;18.822;2022-11-15T03:46:20;39.60;;;25.40;;
70165;SDS011;57541;47.408;18.822;2022-11-15T03:47:41;43.30;;;28.65;;
70165;SDS011;57541;47.408;18.822;2022-11-15T03:48:21;39.38;;;25.48;;
70165;SDS011;57541;47.408;18.822;2022-11-15T03:49:02;40.28;;;24.90;;
70165;SDS011;57541;47.408;18.822;2022-11-15T03:49:40;38.17;;;25.17;;